sensor_id;sensor_type;location;lat;lon;timestamp;pressure;altitude;pressure_sealevel;temperature;humidity
79709;BME280;69203;48.964;9.118;2023-04-16T00:00:23;98820.69;;;7.48;90.79
79709;BME280;69203;48.964;9.118;2023-04-16T00:01:23;98808.41;;;7.50;91.48
79709;BME280;69203;48.964;9.118;2023-04-16T00:02:23;98811.34;;;7.44;91.15
79709;BME280;69203;48.964;9.118;2023-04-16T00:03:24;98811.09;;;7.49;90.64
79709;BME280;69203;48.964;9.118;2023-04-16T00:04:24;98806.47;;;7.54;91.56
79709;BME280;69203;48.964;9.118;2023-04-16T00:05:24;98812.28;;;7.43;91.30
79709;BME280;69203;48.964;9.118;2023-04-16T00:06:25;98811.16;;;7.47;90.70
79709;BME280;69203;48.964;9.118;2023-04-16T00:07:26;98806.22;;;7.43;91.25
79709;BME280;69203;48.964;9.118;2023-04-16T00:08:27;98809.75;;;7.42;90.54
79709;BME280;69203;48.964;9.118;2023-04-16T00:09:28;98805.63;;;7.38;91.29
79709;BME280;69203;48.964;9.118;2023-04-16T00:10:28;98807.13;;;7.42;91.29
79709;BME280;69203;48.964;9.118;2023-04-16T00:11:28;98803.84;;;7.38;90.99
79709;BME280;69203;48.964;9.118;2023-04-16T00:12:29;98808.31;;;7.36;91.21
79709;BME280;69203;48.964;9.118;2023-04-16T00:13:30;98809.34;;;7.34;91.33
79709;BME280;69203;48.964;9.118;2023-04-16T00:14:31;98810.34;;;7.31;91.39
79709;BME280;69203;48.964;9.118;2023-04-16T00:15:31;98810.84;;;7.38;91.54
79709;BME280;69203;48.964;9.118;2023-04-16T00:16:32;98814.63;;;7.32;91.02
79709;BME280;69203;48.964;9.118;2023-04-16T00:17:33;98813.78;;;7.32;91.76
79709;BME280;69203;48.964;9.118;2023-04-16T00:18:34;98808.56;;;7.32;90.99
79709;BME280;69203;48.964;9.118;2023-04-16T00:19:35;98812.19;;;7.29;91.73
79709;BME280;69203;48.964;9.118;2023-04-16T00:20:36;98810.25;;;7.33;92.27
79709;BME280;69203;48.964;9.118;2023-04-16T00:21:38;98820.97;;;7.28;91.21
79709;BME280;69203;48.964;9.118;2023-04-16T00:22:38;98807.66;;;7.33;91.77
79709;BME280;69203;48.964;9.118;2023-04-16T00:23:38;98814.28;;;7.22;91.57
79709;BME280;69203;48.964;9.118;2023-04-16T00:24:39;98813.19;;;7.27;91.50
79709;BME280;69203;48.964;9.118;2023-04-16T00:25:39;98802.25;;;7.20;91.32
79709;BME280;69203;48.964;9.118;2023-04-16T00:26:40;98816.06;;;7.22;91.25
79709;BME280;69203;48.964;9.118;2023-04-16T00:27:40;98812.19;;;7.29;92.06
79709;BME280;69203;48.964;9.118;2023-04-16T00:28:40;98813.19;;;7.27;91.28
79709;BME280;69203;48.964;9.118;2023-04-16T00:29:41;98816.66;;;7.27;91.14
79709;BME280;69203;48.964;9.118;2023-04-16T00:30:41;98823.38;;;7.31;91.51
79709;BME280;69203;48.964;9.118;2023-04-16T00:31:41;98819.84;;;7.32;91.72
79709;BME280;69203;48.964;9.118;2023-04-16T00:32:43;98813.72;;;7.33;91.65
79709;BME280;69203;48.964;9.118;2023-04-16T00:33:44;98810.06;;;7.36;91.09
79709;BME280;69203;48.964;9.118;2023-04-16T00:34:44;98816.91;;;7.38;91.62
79709;BME280;69203;48.964;9.118;2023-04-16T00:35:45;98807.19;;;7.40;91.46
79709;BME280;69203;48.964;9.118;2023-04-16T00:36:46;98814.31;;;7.38;91.42
79709;BME280;69203;48.964;9.118;2023-04-16T00:37:46;98813.63;;;7.35;90.93
79709;BME280;69203;48.964;9.118;2023-04-16T00:38:47;98811.25;;;7.30;91.30
79709;BME280;69203;48.964;9.118;2023-04-16T00:39:47;98811.19;;;7.32;91.28
79709;BME280;69203;48.964;9.118;2023-04-16T00:40:47;98823.72;;;7.41;90.98
79709;BME280;69203;48.964;9.118;2023-04-16T00:41:48;98819.53;;;7.38;90.92
79709;BME280;69203;48.964;9.118;2023-04-16T00:42:48;98809.91;;;7.39;90.54
79709;BME280;69203;48.964;9.118;2023-04-16T00:43:49;98814.88;;;7.43;90.89
79709;BME280;69203;48.964;9.118;2023-04-16T00:44:49;98822.97;;;7.54;91.28
79709;BME280;69203;48.964;9.118;2023-04-16T00:45:51;98813.63;;;7.50;90.22
79709;BME280;69203;48.964;9.118;2023-04-16T00:46:52;98815.78;;;7.58;90.26
79709;BME280;69203;48.964;9.118;2023-04-16T00:47:53;98813.63;;;7.50;90.80
79709;BME280;69203;48.964;9.118;2023-04-16T00:48:54;98820.88;;;7.45;90.50
79709;BME280;69203;48.964;9.118;2023-04-16T00:49:56;98825.75;;;7.51;90.28
79709;BME280;69203;48.964;9.118;2023-04-16T00:50:57;98832.91;;;7.48;90.73
79709;BME280;69203;48.964;9.118;2023-04-16T00:51:58;98821.53;;;7.49;90.63
79709;BME280;69203;48.964;9.118;2023-04-16T00:53:00;98826.91;;;7.46;90.59
79709;BME280;69203;48.964;9.118;2023-04-16T00:54:01;98829.19;;;7.52;90.27
79709;BME280;69203;48.964;9.118;2023-04-16T00:55:03;98821.88;;;7.43;90.77
79709;BME280;69203;48.964;9.118;2023-04-16T00:56:05;98825.16;;;7.46;90.42
79709;BME280;69203;48.964;9.118;2023-04-16T00:57:06;98814.63;;;7.48;91.01
79709;BME280;69203;48.964;9.118;2023-04-16T00:58:06;98816.47;;;7.46;90.70
79709;BME280;69203;48.964;9.118;2023-04-16T00:59:07;98822.97;;;7.39;90.78
79709;BME280;69203;48.964;9.118;2023-04-16T01:00:08;98824.91;;;7.51;90.77
79709;BME280;69203;48.964;9.118;2023-04-16T01:01:09;98829.63;;;7.44;91.06
79709;BME280;69203;48.964;9.118;2023-04-16T01:02:09;98826.69;;;7.50;90.98
79709;BME280;69203;48.964;9.118;2023-04-16T01:03:10;98822.38;;;7.49;91.04
79709;BME280;69203;48.964;9.118;2023-04-16T01:04:10;98811.09;;;7.49;90.81
79709;BME280;69203;48.964;9.118;2023-04-16T01:05:10;98824.22;;;7.47;90.41
79709;BME280;69203;48.964;9.118;2023-04-16T01:06:11;98826.19;;;7.44;90.61
79709;BME280;69203;48.964;9.118;2023-04-16T01:07:12;98828.09;;;7.40;90.81
79709;BME280;69203;48.964;9.118;2023-04-16T01:08:19;98819.44;;;7.40;90.35
79709;BME280;69203;48.964;9.118;2023-04-16T01:09:21;98826.00;;;7.47;90.26
79709;BME280;69203;48.964;9.118;2023-04-16T01:10:21;98822.28;;;7.51;90.38
79709;BME280;69203;48.964;9.118;2023-04-16T01:11:22;98819.84;;;7.48;90.71
79709;BME280;69203;48.964;9.118;2023-04-16T01:12:22;98817.06;;;7.35;90.84
79709;BME280;69203;48.964;9.118;2023-04-16T01:13:23;98830.13;;;7.35;90.82
79709;BME280;69203;48.964;9.118;2023-04-16T01:14:23;98827.28;;;7.40;91.06
79709;BME280;69203;48.964;9.118;2023-04-16T01:15:23;98830.88;;;7.37;91.44
79709;BME280;69203;48.964;9.118;2023-04-16T01:16:25;98831.56;;;7.41;90.41
79709;BME280;69203;48.964;9.118;2023-04-16T01:17:26;98831.72;;;7.38;90.95
79709;BME280;69203;48.964;9.118;2023-04-16T01:18:26;98828.19;;;7.39;91.04
79709;BME280;69203;48.964;9.118;2023-04-16T01:19:26;98828.72;;;7.45;91.18
79709;BME280;69203;48.964;9.118;2023-04-16T01:20:28;98820.38;;;7.39;91.32
79709;BME280;69203;48.964;9.118;2023-04-16T01:21:28;98827.94;;;7.43;90.76
79709;BME280;69203;48.964;9.118;2023-04-16T01:22:29;98825.06;;;7.48;90.98
79709;BME280;69203;48.964;9.118;2023-04-16T01:23:29;98828.53;;;7.48;90.61
79709;BME280;69203;48.964;9.118;2023-04-16T01:24:33;98821.81;;;7.44;90.87
79709;BME280;69203;48.964;9.118;2023-04-16T01:25:34;98820.25;;;7.40;90.38
79709;BME280;69203;48.964;9.118;2023-04-16T01:26:34;98825.34;;;7.43;90.63
79709;BME280;69203;48.964;9.118;2023-04-16T01:27:35;98825.59;;;7.39;91.09
79709;BME280;69203;48.964;9.118;2023-04-16T01:28:36;98829.63;;;7.44;91.02
79709;BME280;69203;48.964;9.118;2023-04-16T01:29:37;98821.53;;;7.33;91.08
79709;BME280;69203;48.964;9.118;2023-04-16T01:30:37;98831.72;;;7.38;91.16
79709;BME280;69203;48.964;9.118;2023-04-16T01:31:37;98832.97;;;7.31;91.68
79709;BME280;69203;48.964;9.118;2023-04-16T01:32:38;98819.94;;;7.31;90.77
79709;BME280;69203;48.964;9.118;2023-04-16T01:33:38;98837.22;;;7.33;91.24
79709;BME280;69203;48.964;9.118;2023-04-16T01:34:39;98831.66;;;7.24;91.40
79709;BME280;69203;48.964;9.118;2023-04-16T01:35:40;98829.13;;;7.22;91.63
79709;BME280;69203;48.964;9.118;2023-04-16T01:36:40;98832.97;;;7.31;91.15
79709;BME280;69203;48.964;9.118;2023-04-16T01:37:40;98833.91;;;7.30;91.49
79709;BME280;69203;48.964;9.118;2023-04-16T01:38:41;98829.53;;;7.30;91.56
79709;BME280;69203;48.964;9.118;2023-04-16T01:39:41;98838.38;;;7.28;91.29
79709;BME280;69203;48.964;9.118;2023-04-16T01:40:41;98834.69;;;7.32;91.25
79709;BME280;69203;48.964;9.118;2023-04-16T01:41:42;98836.03;;;7.39;91.05
79709;BME280;69203;48.964;9.118;2023-04-16T01:42:42;98839.75;;;7.35;91.36
79709;BME280;69203;48.964;9.118;2023-04-16T01:43:43;98839.97;;;7.30;91.76
79709;BME280;69203;48.964;9.118;2023-04-16T01:44:46;98831.81;;;7.36;91.88
79709;BME280;69203;48.964;9.118;2023-04-16T01:45:46;98832.59;;;7.38;91.10
79709;BME280;69203;48.964;9.118;2023-04-16T01:46:47;98839.50;;;7.39;91.02
79709;BME280;69203;48.964;9.118;2023-04-16T01:47:50;98834.09;;;7.42;90.59
79709;BME280;69203;48.964;9.118;2023-04-16T01:48:51;98841.66;;;7.31;91.32
79709;BME280;69203;48.964;9.118;2023-04-16T01:49:53;98841.16;;;7.40;91.46
79709;BME280;69203;48.964;9.118;2023-04-16T01:50:54;98840.22;;;7.41;91.01
79709;BME280;69203;48.964;9.118;2023-04-16T01:51:54;98835.44;;;7.49;90.61
79709;BME280;69203;48.964;9.118;2023-04-16T01:52:55;98842.50;;;7.47;91.00
79709;BME280;69203;48.964;9.118;2023-04-16T01:53:55;98831.56;;;7.41;90.98
79709;BME280;69203;48.964;9.118;2023-04-16T01:54:57;98835.59;;;7.46;90.92
79709;BME280;69203;48.964;9.118;2023-04-16T01:55:57;98837.47;;;7.44;91.26
79709;BME280;69203;48.964;9.118;2023-04-16T01:56:58;98837.94;;;7.51;90.80
79709;BME280;69203;48.964;9.118;2023-04-16T01:57:58;98842.38;;;7.50;90.08
79709;BME280;69203;48.964;9.118;2023-04-16T01:58:58;98841.00;;;7.43;90.99
79709;BME280;69203;48.964;9.118;2023-04-16T01:59:59;98840.09;;;7.44;90.80
79709;BME280;69203;48.964;9.118;2023-04-16T02:01:03;98841.25;;;7.54;90.85
79709;BME280;69203;48.964;9.118;2023-04-16T02:02:11;98837.47;;;7.44;90.31
79709;BME280;69203;48.964;9.118;2023-04-16T02:03:12;98829.91;;;7.40;89.98
79709;BME280;69203;48.964;9.118;2023-04-16T02:04:12;98839.16;;;7.45;90.52
79709;BME280;69203;48.964;9.118;2023-04-16T02:05:13;98835.72;;;7.45;90.66
79709;BME280;69203;48.964;9.118;2023-04-16T02:06:13;98836.28;;;7.34;90.78
79709;BME280;69203;48.964;9.118;2023-04-16T02:07:14;98835.13;;;7.24;91.61
79709;BME280;69203;48.964;9.118;2023-04-16T02:08:14;98840.16;;;7.27;91.46
79709;BME280;69203;48.964;9.118;2023-04-16T02:09:15;98842.69;;;7.29;91.30
79709;BME280;69203;48.964;9.118;2023-04-16T02:10:15;98839.13;;;7.30;91.20
79709;BME280;69203;48.964;9.118;2023-04-16T02:11:15;98838.47;;;7.26;91.07
79709;BME280;69203;48.964;9.118;2023-04-16T02:12:16;98835.72;;;7.29;91.71
79709;BME280;69203;48.964;9.118;2023-04-16T02:13:17;98839.06;;;7.31;91.42
79709;BME280;69203;48.964;9.118;2023-04-16T02:14:17;98843.53;;;7.29;91.45
79709;BME280;69203;48.964;9.118;2023-04-16T02:15:17;98845.03;;;7.33;91.89
79709;BME280;69203;48.964;9.118;2023-04-16T02:16:19;98844.19;;;7.33;90.61
79709;BME280;69203;48.964;9.118;2023-04-16T02:17:19;98838.66;;;7.39;90.41
79709;BME280;69203;48.964;9.118;2023-04-16T02:18:20;98839.75;;;7.35;90.84
79709;BME280;69203;48.964;9.118;2023-04-16T02:19:20;98838.66;;;7.39;91.00
79709;BME280;69203;48.964;9.118;2023-04-16T02:20:21;98839.06;;;7.31;91.06
79709;BME280;69203;48.964;9.118;2023-04-16T02:21:21;98837.13;;;7.35;91.81
79709;BME280;69203;48.964;9.118;2023-04-16T02:22:21;98844.63;;;7.41;91.36
79709;BME280;69203;48.964;9.118;2023-04-16T02:23:22;98833.25;;;7.42;91.12
79709;BME280;69203;48.964;9.118;2023-04-16T02:24:22;98845.47;;;7.41;91.29
79709;BME280;69203;48.964;9.118;2023-04-16T02:25:23;98840.16;;;7.27;91.16
79709;BME280;69203;48.964;9.118;2023-04-16T02:26:23;98839.31;;;7.27;91.87
79709;BME280;69203;48.964;9.118;2023-04-16T02:27:24;98838.78;;;7.36;91.41
79709;BME280;69203;48.964;9.118;2023-04-16T02:28:25;98839.22;;;7.28;91.24
79709;BME280;69203;48.964;9.118;2023-04-16T02:29:25;98839.31;;;7.27;91.50
79709;BME280;69203;48.964;9.118;2023-04-16T02:30:25;98845.03;;;7.33;91.30
79709;BME280;69203;48.964;9.118;2023-04-16T02:31:26;98842.50;;;7.32;91.80
79709;BME280;69203;48.964;9.118;2023-04-16T02:32:27;98844.19;;;7.33;91.77
79709;BME280;69203;48.964;9.118;2023-04-16T02:33:28;98842.19;;;7.38;92.00
79709;BME280;69203;48.964;9.118;2023-04-16T02:34:28;98848.31;;;7.37;91.93
79709;BME280;69203;48.964;9.118;2023-04-16T02:35:28;98847.66;;;7.33;91.40
79709;BME280;69203;48.964;9.118;2023-04-16T02:36:29;98849.09;;;7.39;91.53
79709;BME280;69203;48.964;9.118;2023-04-16T02:37:30;98850.09;;;7.36;91.48
79709;BME280;69203;48.964;9.118;2023-04-16T02:38:31;98842.50;;;7.32;92.23
79709;BME280;69203;48.964;9.118;2023-04-16T02:39:31;98839.06;;;7.31;91.92
79709;BME280;69203;48.964;9.118;2023-04-16T02:40:35;98839.75;;;7.35;91.89
79709;BME280;69203;48.964;9.118;2023-04-16T02:41:35;98843.75;;;7.40;91.28
79709;BME280;69203;48.964;9.118;2023-04-16T02:42:35;98839.38;;;7.41;90.88
79709;BME280;69203;48.964;9.118;2023-04-16T02:43:36;98830.72;;;7.40;91.08
79709;BME280;69203;48.964;9.118;2023-04-16T02:44:36;98841.94;;;7.42;90.97
79709;BME280;69203;48.964;9.118;2023-04-16T02:45:37;98850.59;;;7.43;91.29
79709;BME280;69203;48.964;9.118;2023-04-16T02:46:37;98839.97;;;7.46;91.06
79709;BME280;69203;48.964;9.118;2023-04-16T02:47:37;98847.81;;;7.46;90.64
79709;BME280;69203;48.964;9.118;2023-04-16T02:48:38;98850.44;;;7.46;91.20
79709;BME280;69203;48.964;9.118;2023-04-16T02:49:39;98842.84;;;7.41;90.95
79709;BME280;69203;48.964;9.118;2023-04-16T02:50:39;98850.28;;;7.49;91.24
79709;BME280;69203;48.964;9.118;2023-04-16T02:51:40;98844.19;;;7.48;91.24
79709;BME280;69203;48.964;9.118;2023-04-16T02:52:40;98850.69;;;7.41;91.24
79709;BME280;69203;48.964;9.118;2023-04-16T02:53:40;98852.63;;;7.38;91.35
79709;BME280;69203;48.964;9.118;2023-04-16T02:54:44;98852.44;;;7.41;91.55
79709;BME280;69203;48.964;9.118;2023-04-16T02:55:54;98854.38;;;7.37;91.54
79709;BME280;69203;48.964;9.118;2023-04-16T02:56:54;98853.47;;;7.54;91.24
79709;BME280;69203;48.964;9.118;2023-04-16T02:57:55;98854.56;;;7.50;90.70
79709;BME280;69203;48.964;9.118;2023-04-16T02:58:56;98840.09;;;7.29;91.26
79709;BME280;69203;48.964;9.118;2023-04-16T02:59:57;98859.44;;;7.40;91.27
79709;BME280;69203;48.964;9.118;2023-04-16T03:00:57;98851.44;;;7.43;91.21
79709;BME280;69203;48.964;9.118;2023-04-16T03:01:57;98853.88;;;7.46;90.51
79709;BME280;69203;48.964;9.118;2023-04-16T03:02:58;98845.47;;;7.41;90.46
79709;BME280;69203;48.964;9.118;2023-04-16T03:03:58;98845.97;;;7.48;90.63
79709;BME280;69203;48.964;9.118;2023-04-16T03:04:58;98863.25;;;7.50;90.71
79709;BME280;69203;48.964;9.118;2023-04-16T03:05:59;98865.28;;;7.45;91.42
79709;BME280;69203;48.964;9.118;2023-04-16T03:06:59;98855.06;;;7.41;91.29
79709;BME280;69203;48.964;9.118;2023-04-16T03:08:00;98862.91;;;7.41;91.26
79709;BME280;69203;48.964;9.118;2023-04-16T03:09:00;98861.22;;;7.40;91.50
79709;BME280;69203;48.964;9.118;2023-04-16T03:10:00;98858.38;;;7.44;90.52
79709;BME280;69203;48.964;9.118;2023-04-16T03:11:01;98854.72;;;7.47;91.09
79709;BME280;69203;48.964;9.118;2023-04-16T03:12:01;98858.09;;;7.49;91.08
79709;BME280;69203;48.964;9.118;2023-04-16T03:13:02;98856.59;;;7.45;91.12
79709;BME280;69203;48.964;9.118;2023-04-16T03:14:02;98856.59;;;7.45;90.46
79709;BME280;69203;48.964;9.118;2023-04-16T03:15:03;98858.97;;;7.49;90.54
79709;BME280;69203;48.964;9.118;2023-04-16T03:16:04;98868.72;;;7.46;91.00
79709;BME280;69203;48.964;9.118;2023-04-16T03:17:04;98859.94;;;7.47;91.10
79709;BME280;69203;48.964;9.118;2023-04-16T03:18:06;98872.09;;;7.32;91.50
79709;BME280;69203;48.964;9.118;2023-04-16T03:19:07;98862.22;;;7.37;90.99
79709;BME280;69203;48.964;9.118;2023-04-16T03:20:08;98854.66;;;7.33;90.87
79709;BME280;69203;48.964;9.118;2023-04-16T03:21:09;98872.09;;;7.48;91.42
79709;BME280;69203;48.964;9.118;2023-04-16T03:22:09;98863.16;;;7.52;91.01
79709;BME280;69203;48.964;9.118;2023-04-16T03:23:10;98859.09;;;7.46;90.95
79709;BME280;69203;48.964;9.118;2023-04-16T03:24:10;98866.59;;;7.37;91.20
79709;BME280;69203;48.964;9.118;2023-04-16T03:25:11;98866.59;;;7.37;91.53
79709;BME280;69203;48.964;9.118;2023-04-16T03:26:11;98866.69;;;7.35;91.53
79709;BME280;69203;48.964;9.118;2023-04-16T03:27:11;98871.56;;;7.41;91.17
79709;BME280;69203;48.964;9.118;2023-04-16T03:28:12;98865.19;;;7.47;91.38
79709;BME280;69203;48.964;9.118;2023-04-16T03:29:13;98868.03;;;7.42;90.65
79709;BME280;69203;48.964;9.118;2023-04-16T03:30:15;98871.31;;;7.46;90.97
79709;BME280;69203;48.964;9.118;2023-04-16T03:31:15;98871.69;;;7.40;91.47
79709;BME280;69203;48.964;9.118;2023-04-16T03:32:16;98865.69;;;7.38;91.27
79709;BME280;69203;48.964;9.118;2023-04-16T03:33:16;98872.50;;;7.40;90.87
79709;BME280;69203;48.964;9.118;2023-04-16T03:34:16;98867.38;;;7.39;91.26
79709;BME280;69203;48.964;9.118;2023-04-16T03:35:17;98870.66;;;7.42;91.23
79709;BME280;69203;48.964;9.118;2023-04-16T03:36:18;98875.09;;;7.40;91.28
79709;BME280;69203;48.964;9.118;2023-04-16T03:37:18;98878.66;;;7.39;91.82
79709;BME280;69203;48.964;9.118;2023-04-16T03:38:18;98867.28;;;7.40;91.36
79709;BME280;69203;48.964;9.118;2023-04-16T03:39:19;98881.28;;;7.39;91.49
79709;BME280;69203;48.964;9.118;2023-04-16T03:40:20;98872.41;;;7.42;91.20
79709;BME280;69203;48.964;9.118;2023-04-16T03:41:21;98880.69;;;7.34;91.32
79709;BME280;69203;48.964;9.118;2023-04-16T03:42:21;98880.31;;;7.40;91.47
79709;BME280;69203;48.964;9.118;2023-04-16T03:43:21;98875.09;;;7.40;91.28
79709;BME280;69203;48.964;9.118;2023-04-16T03:44:22;98877.56;;;7.43;91.12
79709;BME280;69203;48.964;9.118;2023-04-16T03:45:22;98877.13;;;7.51;91.42
79709;BME280;69203;48.964;9.118;2023-04-16T03:46:22;98873.84;;;7.47;91.26
79709;BME280;69203;48.964;9.118;2023-04-16T03:47:23;98886.06;;;7.47;91.11
79709;BME280;69203;48.964;9.118;2023-04-16T03:48:23;98881.09;;;7.42;91.47
79709;BME280;69203;48.964;9.118;2023-04-16T03:49:23;98876.72;;;7.43;91.24
79709;BME280;69203;48.964;9.118;2023-04-16T03:50:24;98876.97;;;7.38;91.05
79709;BME280;69203;48.964;9.118;2023-04-16T03:51:24;98884.56;;;7.43;90.70
79709;BME280;69203;48.964;9.118;2023-04-16T03:52:25;98884.47;;;7.44;90.93
79709;BME280;69203;48.964;9.118;2023-04-16T03:53:26;98874.50;;;7.35;91.40
79709;BME280;69203;48.964;9.118;2023-04-16T03:54:29;98884.28;;;7.32;91.19
79709;BME280;69203;48.964;9.118;2023-04-16T03:55:29;98878.94;;;7.35;91.32
79709;BME280;69203;48.964;9.118;2023-04-16T03:56:29;98884.97;;;7.35;91.51
79709;BME280;69203;48.964;9.118;2023-04-16T03:57:30;98880.91;;;7.30;91.74
79709;BME280;69203;48.964;9.118;2023-04-16T03:58:30;98885.13;;;7.32;91.62
79709;BME280;69203;48.964;9.118;2023-04-16T03:59:30;98885.22;;;7.31;91.24
79709;BME280;69203;48.964;9.118;2023-04-16T04:00:31;98882.72;;;7.29;91.17
79709;BME280;69203;48.964;9.118;2023-04-16T04:01:31;98889.44;;;7.33;91.85
79709;BME280;69203;48.964;9.118;2023-04-16T04:02:31;98891.97;;;7.35;91.24
79709;BME280;69203;48.964;9.118;2023-04-16T04:03:32;98888.34;;;7.37;91.86
79709;BME280;69203;48.964;9.118;2023-04-16T04:04:32;98884.56;;;7.43;91.82
79709;BME280;69203;48.964;9.118;2023-04-16T04:05:44;98884.16;;;7.35;90.96
79709;BME280;69203;48.964;9.118;2023-04-16T04:06:45;98887.41;;;7.38;91.56
79709;BME280;69203;48.964;9.118;2023-04-16T04:07:46;98881.44;;;7.36;90.65
79709;BME280;69203;48.964;9.118;2023-04-16T04:08:46;98888.34;;;7.37;91.18
79709;BME280;69203;48.964;9.118;2023-04-16T04:09:46;98888.53;;;7.34;91.11
79709;BME280;69203;48.964;9.118;2023-04-16T04:10:47;98878.41;;;7.28;91.17
79709;BME280;69203;48.964;9.118;2023-04-16T04:11:47;98879.41;;;7.26;91.86
79709;BME280;69203;48.964;9.118;2023-04-16T04:12:47;98888.16;;;7.25;91.12
79709;BME280;69203;48.964;9.118;2023-04-16T04:13:48;98881.41;;;7.20;91.50
79709;BME280;69203;48.964;9.118;2023-04-16T04:14:48;98875.66;;;7.14;91.84
79709;BME280;69203;48.964;9.118;2023-04-16T04:15:49;98890.88;;;7.23;91.40
79709;BME280;69203;48.964;9.118;2023-04-16T04:16:49;98889.00;;;7.25;91.59
79709;BME280;69203;48.964;9.118;2023-04-16T04:17:50;98902.22;;;7.22;91.54
79709;BME280;69203;48.964;9.118;2023-04-16T04:18:50;98890.75;;;7.25;91.64
79709;BME280;69203;48.964;9.118;2023-04-16T04:19:50;98893.53;;;7.21;91.85
79709;BME280;69203;48.964;9.118;2023-04-16T04:20:52;98889.34;;;7.19;92.29
79709;BME280;69203;48.964;9.118;2023-04-16T04:21:53;98890.75;;;7.25;91.19
79709;BME280;69203;48.964;9.118;2023-04-16T04:22:53;98897.91;;;7.21;91.48
79709;BME280;69203;48.964;9.118;2023-04-16T04:23:53;98888.56;;;7.17;91.91
79709;BME280;69203;48.964;9.118;2023-04-16T04:24:54;98885.44;;;7.10;92.07
79709;BME280;69203;48.964;9.118;2023-04-16T04:25:54;98893.72;;;7.18;91.50
79709;BME280;69203;48.964;9.118;2023-04-16T04:26:55;98900.53;;;7.21;91.48
79709;BME280;69203;48.964;9.118;2023-04-16T04:27:56;98903.38;;;7.16;91.87
79709;BME280;69203;48.964;9.118;2023-04-16T04:28:56;98897.06;;;7.20;91.70
79709;BME280;69203;48.964;9.118;2023-04-16T04:29:57;98903.81;;;7.25;91.97
79709;BME280;69203;48.964;9.118;2023-04-16T04:30:58;98899.53;;;7.24;91.31
79709;BME280;69203;48.964;9.118;2023-04-16T04:31:58;98902.63;;;7.30;91.29
79709;BME280;69203;48.964;9.118;2023-04-16T04:32:59;98902.22;;;7.22;91.29
79709;BME280;69203;48.964;9.118;2023-04-16T04:33:59;98911.25;;;7.32;91.22
79709;BME280;69203;48.964;9.118;2023-04-16T04:35:01;98904.19;;;7.34;91.83
79709;BME280;69203;48.964;9.118;2023-04-16T04:36:02;98909.31;;;7.36;91.50
79709;BME280;69203;48.964;9.118;2023-04-16T04:37:03;98906.28;;;7.28;91.18
79709;BME280;69203;48.964;9.118;2023-04-16T04:38:03;98901.78;;;7.30;91.06
79709;BME280;69203;48.964;9.118;2023-04-16T04:39:04;98914.84;;;7.30;91.97
79709;BME280;69203;48.964;9.118;2023-04-16T04:40:05;98904.66;;;7.25;91.11
79709;BME280;69203;48.964;9.118;2023-04-16T04:41:05;98915.09;;;7.25;91.53
79709;BME280;69203;48.964;9.118;2023-04-16T04:42:07;98912.88;;;7.35;91.93
79709;BME280;69203;48.964;9.118;2023-04-16T04:43:07;98904.41;;;7.30;91.41
79709;BME280;69203;48.964;9.118;2023-04-16T04:44:08;98905.34;;;7.29;91.59
79709;BME280;69203;48.964;9.118;2023-04-16T04:45:08;98908.97;;;7.26;91.35
79709;BME280;69203;48.964;9.118;2023-04-16T04:46:09;98916.13;;;7.22;91.98
79709;BME280;69203;48.964;9.118;2023-04-16T04:47:09;98908.38;;;7.21;91.53
79709;BME280;69203;48.964;9.118;2023-04-16T04:48:10;98915.44;;;7.19;92.23
79709;BME280;69203;48.964;9.118;2023-04-16T04:49:10;98914.34;;;7.23;91.96
79709;BME280;69203;48.964;9.118;2023-04-16T04:50:11;98919.72;;;7.20;91.71
79709;BME280;69203;48.964;9.118;2023-04-16T04:51:11;98916.28;;;7.19;92.34
79709;BME280;69203;48.964;9.118;2023-04-16T04:52:11;98911.88;;;7.20;91.96
79709;BME280;69203;48.964;9.118;2023-04-16T04:53:12;98930.09;;;7.21;91.51
79709;BME280;69203;48.964;9.118;2023-04-16T04:54:13;98922.25;;;7.21;91.66
79709;BME280;69203;48.964;9.118;2023-04-16T04:55:14;98931.72;;;7.24;92.20
79709;BME280;69203;48.964;9.118;2023-04-16T04:56:15;98924.03;;;7.21;92.01
79709;BME280;69203;48.964;9.118;2023-04-16T04:57:15;98926.56;;;7.22;91.45
79709;BME280;69203;48.964;9.118;2023-04-16T04:58:15;98925.13;;;7.17;91.85
79709;BME280;69203;48.964;9.118;2023-04-16T04:59:16;98925.38;;;7.12;92.58
79709;BME280;69203;48.964;9.118;2023-04-16T05:00:16;98935.31;;;7.21;92.30
79709;BME280;69203;48.964;9.118;2023-04-16T05:01:16;98930.63;;;7.28;92.44
79709;BME280;69203;48.964;9.118;2023-04-16T05:02:17;98934.16;;;7.27;92.47
79709;BME280;69203;48.964;9.118;2023-04-16T05:03:20;98939.63;;;7.22;91.95
79709;BME280;69203;48.964;9.118;2023-04-16T05:04:23;98926.28;;;7.11;92.35
79709;BME280;69203;48.964;9.118;2023-04-16T05:05:24;98934.41;;;7.22;92.32
79709;BME280;69203;48.964;9.118;2023-04-16T05:06:24;98947.53;;;7.21;91.80
79709;BME280;69203;48.964;9.118;2023-04-16T05:07:24;98945.53;;;7.26;91.65
79709;BME280;69203;48.964;9.118;2023-04-16T05:08:25;98942.66;;;7.31;91.95
79709;BME280;69203;48.964;9.118;2023-04-16T05:09:25;98936.09;;;7.24;91.43
79709;BME280;69203;48.964;9.118;2023-04-16T05:10:26;98943.75;;;7.27;91.63
79709;BME280;69203;48.964;9.118;2023-04-16T05:11:26;98946.97;;;7.32;91.75
79709;BME280;69203;48.964;9.118;2023-04-16T05:12:26;98945.72;;;7.39;91.34
79709;BME280;69203;48.964;9.118;2023-04-16T05:13:27;98951.25;;;7.33;91.44
79709;BME280;69203;48.964;9.118;2023-04-16T05:14:27;98945.19;;;7.32;91.81
79709;BME280;69203;48.964;9.118;2023-04-16T05:15:27;98948.81;;;7.30;92.27
79709;BME280;69203;48.964;9.118;2023-04-16T05:16:28;98949.03;;;7.25;91.94
79709;BME280;69203;48.964;9.118;2023-04-16T05:17:28;98947.13;;;7.29;91.34
79709;BME280;69203;48.964;9.118;2023-04-16T05:18:28;98961.78;;;7.31;91.74
79709;BME280;69203;48.964;9.118;2023-04-16T05:19:29;98954.41;;;7.39;91.27
79709;BME280;69203;48.964;9.118;2023-04-16T05:20:29;98957.88;;;7.40;91.73
79709;BME280;69203;48.964;9.118;2023-04-16T05:21:30;98955.81;;;7.29;91.90
79709;BME280;69203;48.964;9.118;2023-04-16T05:22:32;98956.25;;;7.37;91.49
79709;BME280;69203;48.964;9.118;2023-04-16T05:23:32;98957.69;;;7.43;91.36
79709;BME280;69203;48.964;9.118;2023-04-16T05:24:32;98957.88;;;7.40;91.37
79709;BME280;69203;48.964;9.118;2023-04-16T05:25:33;98950.66;;;7.28;91.34